createdAt,value
2017-11-04T00:00:16.480Z,6.00
2017-11-04T00:02:44.100Z,6.00
2017-11-04T00:05:11.729Z,5.80
2017-11-04T00:07:39.432Z,5.60
2017-11-04T00:12:34.707Z,5.50
2017-11-04T00:15:02.372Z,5.60
2017-11-04T00:17:29.994Z,5.60
2017-11-04T00:20:02.668Z,5.70
2017-11-04T00:22:30.311Z,5.60
2017-11-04T00:27:26.611Z,5.50
2017-11-04T00:29:54.236Z,5.60
2017-11-04T00:32:21.872Z,5.50
2017-11-04T00:34:49.559Z,5.50
2017-11-04T00:37:17.192Z,5.50
2017-11-04T00:42:13.479Z,5.40
2017-11-04T00:47:20.282Z,5.50
2017-11-04T00:49:48.714Z,5.50
2017-11-04T00:52:17.315Z,5.60
2017-11-04T00:54:44.999Z,5.50
2017-11-04T00:57:12.620Z,5.50
2017-11-04T00:59:40.247Z,5.50
2017-11-04T01:02:07.929Z,5.40
2017-11-04T01:04:35.545Z,5.50
2017-11-04T01:07:03.679Z,5.50
2017-11-04T01:09:31.367Z,5.60
2017-11-04T01:11:58.991Z,5.50
2017-11-04T01:14:26.615Z,5.50
2017-11-04T01:16:55.248Z,5.50
2017-11-04T01:19:23.813Z,5.50
2017-11-04T01:21:51.436Z,5.50
2017-11-04T01:24:19.112Z,5.50
2017-11-04T01:29:15.181Z,5.50
2017-11-04T01:31:42.856Z,5.60
2017-11-04T01:34:11.423Z,5.60
2017-11-04T01:36:39.041Z,5.60
2017-11-04T01:39:06.723Z,5.60
2017-11-04T01:41:34.340Z,5.50
2017-11-04T01:44:01.963Z,5.50
2017-11-04T01:46:29.649Z,5.50
2017-11-04T01:48:58.112Z,5.50
2017-11-04T01:51:25.732Z,5.60
2017-11-04T01:59:00.956Z,6.00
2017-11-04T02:01:28.594Z,6.00
2017-11-04T02:03:56.220Z,5.90
2017-11-04T02:11:19.127Z,5.30
2017-11-04T02:13:46.810Z,5.40
2017-11-04T02:16:14.430Z,5.40
2017-11-04T02:21:09.735Z,5.30
2017-11-04T02:23:37.355Z,5.30
2017-11-04T02:26:04.965Z,5.40
2017-11-04T02:28:32.651Z,5.40
2017-11-04T02:31:00.274Z,5.40
2017-11-04T02:33:27.903Z,5.20
2017-11-04T02:35:55.579Z,5.00
2017-11-04T02:38:24.226Z,5.00
2017-11-04T02:40:51.734Z,5.10
2017-11-04T02:43:19.417Z,5.20
2017-11-04T02:45:47.043Z,5.10
2017-11-04T02:48:14.676Z,5.20
2017-11-04T02:50:42.363Z,5.30
2017-11-04T02:53:09.980Z,5.40
2017-11-04T02:55:37.612Z,5.40
2017-11-04T03:00:32.923Z,5.50
2017-11-04T03:05:28.243Z,5.40
2017-11-04T03:07:55.875Z,5.30
2017-11-04T03:10:23.509Z,5.20
2017-11-04T03:12:51.207Z,5.30
2017-11-04T03:15:18.841Z,5.20
2017-11-04T03:17:46.478Z,5.20
2017-11-04T03:20:14.164Z,5.10
2017-11-04T03:25:20.963Z,5.00
2017-11-04T03:30:28.328Z,5.10
2017-11-04T03:32:55.944Z,5.10
2017-11-04T03:35:23.578Z,5.20
2017-11-04T03:37:51.289Z,5.20
2017-11-04T03:40:18.935Z,5.10
2017-11-04T03:42:46.557Z,5.10
2017-11-04T03:45:14.233Z,5.10
2017-11-04T03:47:42.248Z,5.10
2017-11-04T03:52:37.533Z,5.30
2017-11-04T03:55:05.152Z,5.40
2017-11-04T03:57:32.776Z,5.40
2017-11-04T04:00:01.284Z,5.40
2017-11-04T04:02:28.905Z,5.30
2017-11-04T04:04:56.520Z,5.20
2017-11-04T04:07:24.202Z,5.10
2017-11-04T04:09:51.828Z,5.10
2017-11-04T04:12:19.460Z,5.10
2017-11-04T04:14:47.156Z,5.20
2017-11-04T04:17:14.784Z,5.20
2017-11-04T04:22:10.085Z,5.20
2017-11-04T04:24:37.708Z,5.20
2017-11-04T04:27:05.326Z,5.30
2017-11-04T04:29:32.998Z,5.30
2017-11-04T04:32:00.622Z,5.30
2017-11-04T04:34:28.248Z,5.30
2017-11-04T04:36:55.928Z,5.30
2017-11-04T04:39:23.553Z,5.20
2017-11-04T04:44:32.805Z,5.20
2017-11-04T04:47:01.387Z,5.40
2017-11-04T04:49:29.975Z,5.40
2017-11-04T04:51:58.621Z,5.50
2017-11-04T04:54:27.110Z,5.50
2017-11-04T04:56:54.999Z,5.50
2017-11-04T04:59:23.246Z,5.50
2017-11-04T05:01:51.727Z,5.40
2017-11-04T05:04:19.383Z,5.40
2017-11-04T05:06:47.556Z,5.20
2017-11-04T05:11:42.823Z,5.20
2017-11-04T05:14:10.512Z,5.10
2017-11-04T05:16:39.092Z,5.20
2017-11-04T05:19:06.725Z,5.20
2017-11-04T05:21:36.329Z,5.20
2017-11-04T05:24:03.956Z,5.20
2017-11-04T05:26:31.586Z,5.20
2017-11-04T05:28:59.720Z,5.20
2017-11-04T05:31:27.310Z,5.30
2017-11-04T05:33:54.948Z,5.10
2017-11-04T05:36:22.635Z,5.10
2017-11-04T05:38:50.260Z,5.10
2017-11-04T05:41:17.900Z,5.20
2017-11-04T05:43:45.589Z,5.30
2017-11-04T05:46:15.208Z,5.40
2017-11-04T05:48:41.014Z,5.40
2017-11-04T05:51:08.704Z,5.40
2017-11-04T05:53:40.296Z,5.50
2017-11-04T05:56:12.651Z,5.20
2017-11-04T06:01:19.448Z,4.70
2017-11-04T06:03:47.087Z,4.90
2017-11-04T06:06:14.732Z,4.90
2017-11-04T06:08:42.430Z,5.00
2017-11-04T06:11:10.796Z,4.80
2017-11-04T06:13:38.431Z,4.80
2017-11-04T06:16:06.121Z,4.60
2017-11-04T06:18:33.904Z,4.60
2017-11-04T06:21:02.477Z,4.70
2017-11-04T06:23:30.162Z,4.70
2017-11-04T06:25:57.791Z,4.70
2017-11-04T06:28:25.848Z,4.80
2017-11-04T06:33:21.214Z,4.80
2017-11-04T06:35:49.829Z,4.50
2017-11-04T06:38:17.538Z,4.50
2017-11-04T06:40:45.170Z,4.70
2017-11-04T06:43:12.824Z,4.60
2017-11-04T06:45:40.493Z,4.60
2017-11-04T06:50:35.761Z,4.60
2017-11-04T06:53:03.749Z,4.70
2017-11-04T06:55:31.385Z,4.90
2017-11-04T06:57:59.960Z,5.10
2017-11-04T07:00:27.645Z,5.20
2017-11-04T07:02:55.272Z,5.10
2017-11-04T07:05:22.926Z,5.20
2017-11-04T07:07:51.278Z,5.30
2017-11-04T07:12:49.994Z,5.50
2017-11-04T07:15:17.674Z,5.40
2017-11-04T07:17:45.298Z,5.20
2017-11-04T07:20:12.934Z,5.30
2017-11-04T07:22:40.643Z,5.50
2017-11-04T07:30:18.678Z,5.90
2017-11-04T07:32:46.311Z,5.90
2017-11-04T07:35:14.759Z,6.00
2017-11-04T07:37:42.460Z,6.00
2017-11-04T07:40:10.074Z,6.10
2017-11-04T07:42:37.698Z,6.10
2017-11-04T07:45:05.377Z,6.10
2017-11-04T07:47:33.027Z,6.40
2017-11-04T07:50:00.654Z,6.30
2017-11-04T07:52:28.353Z,6.50
2017-11-04T07:54:55.988Z,6.40
2017-11-04T07:57:23.610Z,6.40
2017-11-04T07:59:51.280Z,6.60
2017-11-04T08:02:18.908Z,6.50
2017-11-04T08:04:46.532Z,6.60
2017-11-04T08:07:14.213Z,6.70
2017-11-04T08:09:41.832Z,6.70
2017-11-04T08:12:09.476Z,6.90
2017-11-04T08:14:37.140Z,6.80
2017-11-04T08:17:05.722Z,6.70
2017-11-04T08:19:33.350Z,6.80
2017-11-04T08:22:01.041Z,6.80
2017-11-04T08:24:28.662Z,7.00
2017-11-04T08:26:56.283Z,7.20
2017-11-04T08:31:51.791Z,7.40
2017-11-04T08:34:19.782Z,7.30
2017-11-04T08:36:47.456Z,7.50
2017-11-04T08:41:58.403Z,7.70
2017-11-04T08:44:25.944Z,7.80
2017-11-04T08:46:53.560Z,7.80
2017-11-04T08:49:21.630Z,7.60
2017-11-04T08:51:49.249Z,7.40
2017-11-04T08:54:16.909Z,7.50
2017-11-04T08:56:44.594Z,7.50
2017-11-04T08:59:12.216Z,7.50
2017-11-04T09:01:40.777Z,7.70
2017-11-04T09:04:08.464Z,7.90
2017-11-04T09:06:37.031Z,7.90
2017-11-04T09:09:06.616Z,8.10
2017-11-04T09:11:34.293Z,8.10
2017-11-04T09:14:01.920Z,8.40
2017-11-04T09:16:29.555Z,8.30
2017-11-04T09:18:57.298Z,8.50
2017-11-04T09:24:04.614Z,8.60
2017-11-04T09:26:32.266Z,8.80
2017-11-04T09:28:59.866Z,8.90
2017-11-04T09:31:27.574Z,9.00
2017-11-04T09:33:55.205Z,9.10
2017-11-04T09:36:22.821Z,9.20
2017-11-04T09:41:19.071Z,9.80
2017-11-04T09:43:49.142Z,10.00
2017-11-04T09:46:19.770Z,9.90
2017-11-04T09:48:47.736Z,9.50
2017-11-04T09:51:17.673Z,9.60
2017-11-04T09:53:47.822Z,9.90
2017-11-04T09:56:14.804Z,10.20
2017-11-04T09:58:43.291Z,10.00
2017-11-04T10:01:10.976Z,9.90
2017-11-04T10:03:38.613Z,10.30
2017-11-04T10:06:06.236Z,10.60
2017-11-04T10:08:33.932Z,10.60
2017-11-04T10:11:01.562Z,11.20
2017-11-04T10:13:29.192Z,11.40
2017-11-04T10:15:56.876Z,11.30
2017-11-04T10:18:24.507Z,11.20
2017-11-04T10:20:52.140Z,11.60
2017-11-04T10:23:19.840Z,11.00
2017-11-04T10:28:15.113Z,11.20
2017-11-04T10:33:22.269Z,11.00
2017-11-04T10:35:49.975Z,11.30
2017-11-04T10:38:17.604Z,11.90
2017-11-04T10:40:45.255Z,11.40
2017-11-04T10:43:13.890Z,11.30
2017-11-04T10:45:42.671Z,11.90
2017-11-04T10:48:10.124Z,12.40
2017-11-04T10:50:38.546Z,12.20
2017-11-04T10:53:05.441Z,12.20
2017-11-04T10:55:33.070Z,12.80
2017-11-04T10:58:00.769Z,12.70
2017-11-04T11:00:29.339Z,12.50
2017-11-04T11:02:56.963Z,13.00
2017-11-04T11:05:25.635Z,12.80
2017-11-04T11:10:20.906Z,12.50
2017-11-04T11:12:48.608Z,12.50
2017-11-04T11:17:45.074Z,13.00
2017-11-04T11:22:51.573Z,13.50
2017-11-04T11:25:19.279Z,14.20
2017-11-04T11:27:46.900Z,14.50
2017-11-04T11:30:14.530Z,15.30
2017-11-04T11:32:42.236Z,14.40
2017-11-04T11:35:09.865Z,13.80
2017-11-04T11:37:38.312Z,13.30
2017-11-04T11:40:06.073Z,13.90
2017-11-04T11:42:33.652Z,13.20
2017-11-04T11:45:01.268Z,13.10
2017-11-04T11:47:28.962Z,13.80
2017-11-04T11:49:56.586Z,14.10
2017-11-04T11:52:25.158Z,13.70
2017-11-04T11:54:52.840Z,14.10
2017-11-04T11:57:21.111Z,14.50
2017-11-04T11:59:48.079Z,14.20
2017-11-04T12:02:15.768Z,14.10
2017-11-04T12:04:43.532Z,14.20
2017-11-04T12:07:11.161Z,14.20
2017-11-04T12:09:38.862Z,13.90
2017-11-04T12:12:06.490Z,13.90
2017-11-04T12:14:34.112Z,14.50
2017-11-04T12:17:01.796Z,14.90
2017-11-04T12:19:30.373Z,15.20
2017-11-04T12:21:58.935Z,15.50
2017-11-04T12:24:26.623Z,15.50
2017-11-04T12:26:54.248Z,15.70
2017-11-04T12:29:21.868Z,16.00
2017-11-04T12:34:31.620Z,15.10
2017-11-04T12:37:00.202Z,15.50
2017-11-04T12:41:55.447Z,15.80
2017-11-04T12:44:24.097Z,15.80
2017-11-04T12:49:19.341Z,15.90
2017-11-04T12:51:47.024Z,15.70
2017-11-04T12:54:14.648Z,15.50
2017-11-04T12:56:42.278Z,15.70
2017-11-04T12:59:10.782Z,15.50
2017-11-04T13:01:38.413Z,15.80
2017-11-04T13:04:06.033Z,15.30
2017-11-04T13:06:33.714Z,15.00
2017-11-04T13:09:01.345Z,15.30
2017-11-04T13:11:29.682Z,15.40
2017-11-04T13:13:57.388Z,15.80
2017-11-04T13:16:25.025Z,15.70
2017-11-04T13:21:21.683Z,15.30
2017-11-04T13:23:49.361Z,15.90
2017-11-04T13:26:16.981Z,15.30
2017-11-04T13:28:44.668Z,15.50
2017-11-04T13:31:12.299Z,16.30
2017-11-04T13:33:40.326Z,16.70
2017-11-04T13:36:08.026Z,17.00
2017-11-04T13:38:35.659Z,16.40
2017-11-04T13:41:04.123Z,15.80
2017-11-04T13:43:31.809Z,15.40
2017-11-04T13:45:59.431Z,15.40
2017-11-04T13:48:27.064Z,15.40
2017-11-04T13:50:54.752Z,15.10
2017-11-04T13:53:23.373Z,14.90
2017-11-04T13:55:51.000Z,14.90
2017-11-04T13:58:18.709Z,14.60
2017-11-04T14:03:25.488Z,15.10
2017-11-04T14:05:53.110Z,15.50
2017-11-04T14:08:21.584Z,15.40
2017-11-04T14:10:49.275Z,15.00
2017-11-04T14:13:16.904Z,15.20
2017-11-04T14:15:44.541Z,15.40
2017-11-04T14:20:40.611Z,15.00
2017-11-04T14:23:09.110Z,15.50
2017-11-04T14:25:37.482Z,15.40
2017-11-04T14:28:04.423Z,15.40
2017-11-04T14:30:32.080Z,15.30
2017-11-04T14:33:00.657Z,14.80
2017-11-04T14:35:28.287Z,14.60
2017-11-04T14:37:55.905Z,14.60
2017-11-04T14:40:24.531Z,14.60
2017-11-04T14:42:52.147Z,14.90
2017-11-04T14:45:19.769Z,15.10
2017-11-04T14:47:47.455Z,15.20
2017-11-04T14:50:15.104Z,15.30
2017-11-04T14:52:42.719Z,15.30
2017-11-04T14:55:10.402Z,15.30
2017-11-04T14:57:38.027Z,15.30
2017-11-04T15:00:05.646Z,15.40
2017-11-04T15:02:33.336Z,15.40
2017-11-04T15:05:01.010Z,15.10
2017-11-04T15:07:28.632Z,15.20
2017-11-04T15:09:56.318Z,15.20
2017-11-04T15:12:23.946Z,15.20
2017-11-04T15:14:51.617Z,15.30
2017-11-04T15:17:19.311Z,15.10
2017-11-04T15:19:47.263Z,15.00
2017-11-04T15:22:14.895Z,15.10
2017-11-04T15:27:23.709Z,15.10
2017-11-04T15:29:51.385Z,15.10
2017-11-04T15:32:19.009Z,15.10
2017-11-04T15:37:14.331Z,15.10
2017-11-04T15:39:41.958Z,15.00
2017-11-04T15:42:09.584Z,15.00
2017-11-04T15:44:37.267Z,15.00
2017-11-04T15:47:04.893Z,14.90
2017-11-04T15:49:32.512Z,14.90
2017-11-04T15:52:00.195Z,14.80
2017-11-04T15:56:56.395Z,14.80
2017-11-04T15:59:24.081Z,14.80
2017-11-04T16:01:51.712Z,14.70
2017-11-04T16:04:19.341Z,14.70
2017-11-04T16:06:47.038Z,14.60
2017-11-04T16:09:14.671Z,14.70
2017-11-04T16:11:42.302Z,14.60
2017-11-04T16:16:37.618Z,14.60
2017-11-04T16:19:06.156Z,14.50
2017-11-04T16:21:34.354Z,14.60
2017-11-04T16:24:01.904Z,14.50
2017-11-04T16:26:29.530Z,14.50
2017-11-04T16:28:57.208Z,14.60
2017-11-04T16:31:24.826Z,14.40
2017-11-04T16:33:52.448Z,14.40
2017-11-04T16:36:20.130Z,14.40
2017-11-04T16:38:47.748Z,14.30
2017-11-04T16:41:15.384Z,14.30
2017-11-04T16:43:43.071Z,14.20
2017-11-04T16:46:10.712Z,14.00
2017-11-04T16:48:38.354Z,13.90
2017-11-04T16:51:06.044Z,13.40
2017-11-04T16:56:15.810Z,13.30
2017-11-04T16:58:43.443Z,13.40
2017-11-04T17:01:11.076Z,13.10
2017-11-04T17:06:06.381Z,12.80
2017-11-04T17:08:34.008Z,12.70
2017-11-04T17:11:01.684Z,12.70
2017-11-04T17:13:29.800Z,12.60
2017-11-04T17:15:57.428Z,12.30
2017-11-04T17:18:25.126Z,12.20
2017-11-04T17:20:52.739Z,12.40
2017-11-04T17:23:20.366Z,12.90
2017-11-04T17:25:48.046Z,13.20
2017-11-04T17:28:15.684Z,13.40
2017-11-04T17:30:43.305Z,13.50
2017-11-04T17:35:38.708Z,12.90
2017-11-04T17:38:06.255Z,12.60
2017-11-04T17:40:34.327Z,12.60
2017-11-04T17:43:02.441Z,12.60
2017-11-04T17:47:57.900Z,13.10
2017-11-04T17:50:26.831Z,12.60
2017-11-04T17:55:22.514Z,12.40
2017-11-04T17:57:50.213Z,12.10
2017-11-04T18:00:17.756Z,12.10
2017-11-04T18:02:47.345Z,12.20
2017-11-04T18:05:14.973Z,12.50
2017-11-04T18:07:42.602Z,12.80
2017-11-04T18:10:11.038Z,13.10
2017-11-04T18:12:38.661Z,13.20
2017-11-04T18:15:06.284Z,13.30
2017-11-04T18:17:33.970Z,13.40
2017-11-04T18:22:42.771Z,12.10
2017-11-04T18:25:10.970Z,12.40
2017-11-04T18:27:39.141Z,12.50
2017-11-04T18:30:06.864Z,12.60
2017-11-04T18:32:35.250Z,12.30
2017-11-04T18:35:02.882Z,12.30
2017-11-04T18:37:31.026Z,12.70
2017-11-04T18:42:28.048Z,13.00
2017-11-04T18:44:56.588Z,13.00
2017-11-04T18:47:24.206Z,12.60
2017-11-04T18:49:51.828Z,12.50
2017-11-04T18:52:19.511Z,12.50
2017-11-04T18:54:47.137Z,12.50
2017-11-04T18:57:15.581Z,11.80
2017-11-04T19:02:10.895Z,12.50
2017-11-04T19:04:39.457Z,12.50
2017-11-04T19:07:07.152Z,12.10
2017-11-04T19:09:35.645Z,11.20
2017-11-04T19:12:03.277Z,11.20
2017-11-04T19:14:30.973Z,11.10
2017-11-04T19:16:58.618Z,10.10
2017-11-04T19:24:33.657Z,10.40
2017-11-04T19:27:01.347Z,10.40
2017-11-04T19:29:28.979Z,9.50
2017-11-04T19:31:56.596Z,9.30
2017-11-04T19:34:24.316Z,9.30
2017-11-04T19:36:51.919Z,9.40
2017-11-04T19:39:19.525Z,9.70
2017-11-04T19:44:15.124Z,9.30
2017-11-04T19:46:42.704Z,9.20
2017-11-04T19:49:10.396Z,8.80
2017-11-04T19:51:38.005Z,9.10
2017-11-04T19:54:05.633Z,8.90
2017-11-04T19:56:33.369Z,8.80
2017-11-04T19:59:01.027Z,8.80
2017-11-04T20:03:56.410Z,8.60
2017-11-04T20:06:24.050Z,8.70
2017-11-04T20:08:51.740Z,8.70
2017-11-04T20:11:19.443Z,8.40
2017-11-04T20:13:48.073Z,8.20
2017-11-04T20:16:16.016Z,8.40
2017-11-04T20:18:43.685Z,8.70
2017-11-04T20:21:11.439Z,8.20
2017-11-04T20:23:40.824Z,8.10
2017-11-04T20:26:09.248Z,8.50
2017-11-04T20:28:37.095Z,7.80
2017-11-04T20:31:04.971Z,8.00
2017-11-04T20:33:32.587Z,8.10
2017-11-04T20:36:00.497Z,8.60
2017-11-04T20:41:10.077Z,8.30
2017-11-04T20:43:37.708Z,8.40
2017-11-04T20:46:05.345Z,8.40
2017-11-04T20:48:33.049Z,8.20
2017-11-04T20:51:00.671Z,8.30
2017-11-04T20:53:28.296Z,8.50
2017-11-04T20:55:55.983Z,8.50
2017-11-04T20:58:23.600Z,8.20
2017-11-04T21:00:51.246Z,8.30
2017-11-04T21:03:18.943Z,8.40
2017-11-04T21:05:46.544Z,8.50
2017-11-04T21:08:14.178Z,8.60
2017-11-04T21:10:41.858Z,8.10
2017-11-04T21:13:09.498Z,8.30
2017-11-04T21:15:37.121Z,8.00
2017-11-04T21:18:04.865Z,8.20
2017-11-04T21:20:32.513Z,8.20
2017-11-04T21:23:01.003Z,7.80
2017-11-04T21:25:28.698Z,7.80
2017-11-04T21:30:24.939Z,7.30
2017-11-04T21:32:52.626Z,7.70
2017-11-04T21:35:20.345Z,7.90
2017-11-04T21:37:48.015Z,7.70
2017-11-04T21:40:15.698Z,7.70
2017-11-04T21:42:43.326Z,7.80
2017-11-04T21:45:10.961Z,8.10
2017-11-04T21:47:38.660Z,8.20
2017-11-04T21:50:06.296Z,7.40
2017-11-04T21:52:37.454Z,7.20
2017-11-04T21:55:04.976Z,7.80
2017-11-04T21:57:32.611Z,7.60
2017-11-04T22:00:00.270Z,7.70
2017-11-04T22:02:27.970Z,7.80
2017-11-04T22:07:34.779Z,7.90
2017-11-04T22:10:02.404Z,7.90
2017-11-04T22:12:30.585Z,7.90
2017-11-04T22:14:58.271Z,7.60
2017-11-04T22:17:26.853Z,7.70
2017-11-04T22:19:54.482Z,7.30
2017-11-04T22:22:22.185Z,7.10
2017-11-04T22:24:49.820Z,7.10
2017-11-04T22:27:17.434Z,7.40
2017-11-04T22:29:46.079Z,7.50
2017-11-04T22:32:13.703Z,7.10
2017-11-04T22:34:41.336Z,7.50
2017-11-04T22:37:09.051Z,7.30
2017-11-04T22:39:36.759Z,7.40
2017-11-04T22:42:04.467Z,7.30
2017-11-04T22:44:32.236Z,7.30
2017-11-04T22:46:59.865Z,7.50
2017-11-04T22:49:27.967Z,7.50
2017-11-04T22:51:55.665Z,7.70
2017-11-04T22:54:23.329Z,7.70
2017-11-04T22:56:50.955Z,8.20
2017-11-04T22:59:18.740Z,8.10
2017-11-04T23:04:14.018Z,7.60
2017-11-04T23:06:41.889Z,7.60
2017-11-04T23:09:09.558Z,7.70
2017-11-04T23:11:38.009Z,7.80
2017-11-04T23:14:05.698Z,8.10
2017-11-04T23:16:33.336Z,7.60
2017-11-04T23:21:43.145Z,7.30
2017-11-04T23:24:10.772Z,7.40
2017-11-04T23:26:38.392Z,7.60
2017-11-04T23:29:06.088Z,7.00
2017-11-04T23:31:33.716Z,7.00
2017-11-04T23:34:01.361Z,7.50
2017-11-04T23:36:29.043Z,7.10
2017-11-04T23:38:56.676Z,7.70
2017-11-04T23:41:24.302Z,7.00
2017-11-04T23:43:51.976Z,7.00
2017-11-04T23:48:47.228Z,7.00
2017-11-04T23:51:14.928Z,7.30
2017-11-04T23:53:42.556Z,6.90
2017-11-04T23:56:10.182Z,6.60
